sensor_id;sensor_type;location;lat;lon;timestamp;temperature;humidity
13470;DHT22;6807;48.682;9.032;2023-11-19T19:31:54;10.00;88.30
13470;DHT22;6807;48.682;9.032;2023-11-19T19:34:21;10.00;88.50
13470;DHT22;6807;48.682;9.032;2023-11-19T19:36:49;10.10;88.30
13470;DHT22;6807;48.682;9.032;2023-11-19T19:39:16;10.20;87.80
13470;DHT22;6807;48.682;9.032;2023-11-19T19:41:43;10.30;87.20
13470;DHT22;6807;48.682;9.032;2023-11-19T19:44:10;10.40;86.50
13470;DHT22;6807;48.682;9.032;2023-11-19T19:46:40;10.40;85.90
13470;DHT22;6807;48.682;9.032;2023-11-19T19:49:09;10.40;85.60
13470;DHT22;6807;48.682;9.032;2023-11-19T19:51:36;10.50;84.80
13470;DHT22;6807;48.682;9.032;2023-11-19T19:54:03;10.60;83.90
13470;DHT22;6807;48.682;9.032;2023-11-19T19:56:30;10.70;83.50
13470;DHT22;6807;48.682;9.032;2023-11-19T19:58:56;10.90;82.90
13470;DHT22;6807;48.682;9.032;2023-11-19T20:01:23;11.00;82.60
13470;DHT22;6807;48.682;9.032;2023-11-19T20:03:51;11.10;82.90
13470;DHT22;6807;48.682;9.032;2023-11-19T20:06:19;11.10;83.50
13470;DHT22;6807;48.682;9.032;2023-11-19T20:08:47;11.00;84.60
13470;DHT22;6807;48.682;9.032;2023-11-19T20:11:14;11.00;85.50
13470;DHT22;6807;48.682;9.032;2023-11-19T20:13:41;10.90;85.60
13470;DHT22;6807;48.682;9.032;2023-11-19T20:16:09;10.90;85.90
13470;DHT22;6807;48.682;9.032;2023-11-19T20:18:36;10.80;85.80
13470;DHT22;6807;48.682;9.032;2023-11-19T20:21:03;10.90;86.10
13470;DHT22;6807;48.682;9.032;2023-11-19T20:23:31;10.90;86.30
13470;DHT22;6807;48.682;9.032;2023-11-19T20:25:58;10.80;87.00
13470;DHT22;6807;48.682;9.032;2023-11-19T20:28:25;10.80;87.20
13470;DHT22;6807;48.682;9.032;2023-11-19T20:30:52;10.70;87.40
13470;DHT22;6807;48.682;9.032;2023-11-19T20:33:19;10.70;87.20
13470;DHT22;6807;48.682;9.032;2023-11-19T20:35:46;10.70;88.30
13470;DHT22;6807;48.682;9.032;2023-11-19T20:38:13;10.70;88.80
13470;DHT22;6807;48.682;9.032;2023-11-19T20:40:43;10.60;89.40
13470;DHT22;6807;48.682;9.032;2023-11-19T20:43:09;10.50;90.50
13470;DHT22;6807;48.682;9.032;2023-11-19T20:45:36;10.50;91.90
13470;DHT22;6807;48.682;9.032;2023-11-19T20:48:04;10.40;92.20
13470;DHT22;6807;48.682;9.032;2023-11-19T20:50:31;10.40;93.00
13470;DHT22;6807;48.682;9.032;2023-11-19T20:52:59;10.30;93.80
13470;DHT22;6807;48.682;9.032;2023-11-19T20:55:26;10.30;93.80
13470;DHT22;6807;48.682;9.032;2023-11-19T20:57:54;10.30;93.10
13470;DHT22;6807;48.682;9.032;2023-11-19T21:00:21;10.30;93.30
13470;DHT22;6807;48.682;9.032;2023-11-19T21:02:49;10.30;93.20
13470;DHT22;6807;48.682;9.032;2023-11-19T21:05:19;10.30;92.90
13470;DHT22;6807;48.682;9.032;2023-11-19T21:07:46;10.30;93.20
13470;DHT22;6807;48.682;9.032;2023-11-19T21:10:13;10.20;93.30
13470;DHT22;6807;48.682;9.032;2023-11-19T21:12:40;10.20;93.70
13470;DHT22;6807;48.682;9.032;2023-11-19T21:15:09;10.20;94.40
13470;DHT22;6807;48.682;9.032;2023-11-19T21:17:36;10.20;93.50
13470;DHT22;6807;48.682;9.032;2023-11-19T21:20:04;10.10;92.60
13470;DHT22;6807;48.682;9.032;2023-11-19T21:22:33;10.10;93.00
13470;DHT22;6807;48.682;9.032;2023-11-19T21:24:59;10.10;91.90
13470;DHT22;6807;48.682;9.032;2023-11-19T21:27:26;10.10;91.20
13470;DHT22;6807;48.682;9.032;2023-11-19T21:29:55;10.10;90.70
13470;DHT22;6807;48.682;9.032;2023-11-19T21:32:24;10.10;90.70
13470;DHT22;6807;48.682;9.032;2023-11-19T21:34:51;10.10;92.00
13470;DHT22;6807;48.682;9.032;2023-11-19T21:37:17;10.00;92.80
13470;DHT22;6807;48.682;9.032;2023-11-19T21:39:44;10.00;92.50
13470;DHT22;6807;48.682;9.032;2023-11-19T21:42:11;9.90;93.30
13470;DHT22;6807;48.682;9.032;2023-11-19T21:44:39;9.90;93.60
13470;DHT22;6807;48.682;9.032;2023-11-19T21:47:06;9.80;93.90
13470;DHT22;6807;48.682;9.032;2023-11-19T21:49:35;9.80;92.60
13470;DHT22;6807;48.682;9.032;2023-11-19T21:52:03;9.80;92.50
13470;DHT22;6807;48.682;9.032;2023-11-19T21:54:31;9.70;92.70
13470;DHT22;6807;48.682;9.032;2023-11-19T21:56:59;9.70;92.30
13470;DHT22;6807;48.682;9.032;2023-11-19T21:59:27;9.60;92.30
13470;DHT22;6807;48.682;9.032;2023-11-19T22:01:55;9.50;92.70
13470;DHT22;6807;48.682;9.032;2023-11-19T22:04:22;9.40;93.20
13470;DHT22;6807;48.682;9.032;2023-11-19T22:06:53;9.30;93.40
13470;DHT22;6807;48.682;9.032;2023-11-19T22:09:20;9.30;93.90
13470;DHT22;6807;48.682;9.032;2023-11-19T22:11:55;9.30;94.20
13470;DHT22;6807;48.682;9.032;2023-11-19T22:14:23;9.20;94.20
13470;DHT22;6807;48.682;9.032;2023-11-19T22:16:50;9.20;94.40
13470;DHT22;6807;48.682;9.032;2023-11-19T22:19:16;9.10;94.70
13470;DHT22;6807;48.682;9.032;2023-11-19T22:21:43;9.10;94.20
13470;DHT22;6807;48.682;9.032;2023-11-19T22:24:11;9.10;94.10
13470;DHT22;6807;48.682;9.032;2023-11-19T22:26:38;9.10;93.30
13470;DHT22;6807;48.682;9.032;2023-11-19T22:29:05;9.20;92.70
13470;DHT22;6807;48.682;9.032;2023-11-19T22:31:32;9.20;91.90
13470;DHT22;6807;48.682;9.032;2023-11-19T22:34:00;9.10;91.80
13470;DHT22;6807;48.682;9.032;2023-11-19T22:36:28;9.10;91.50
13470;DHT22;6807;48.682;9.032;2023-11-19T22:38:55;9.10;91.20
13470;DHT22;6807;48.682;9.032;2023-11-19T22:41:23;9.20;90.60
13470;DHT22;6807;48.682;9.032;2023-11-19T22:43:50;9.10;90.60
13470;DHT22;6807;48.682;9.032;2023-11-19T22:46:17;9.00;90.50
13470;DHT22;6807;48.682;9.032;2023-11-19T22:48:44;9.00;90.20
13470;DHT22;6807;48.682;9.032;2023-11-19T22:51:10;9.00;90.30
13470;DHT22;6807;48.682;9.032;2023-11-19T22:53:39;8.90;90.00
13470;DHT22;6807;48.682;9.032;2023-11-19T22:56:07;9.00;89.60
13470;DHT22;6807;48.682;9.032;2023-11-19T22:58:37;9.00;89.40
13470;DHT22;6807;48.682;9.032;2023-11-19T23:01:04;9.00;89.50
13470;DHT22;6807;48.682;9.032;2023-11-19T23:03:32;9.00;89.40
13470;DHT22;6807;48.682;9.032;2023-11-19T23:05:58;9.00;89.20
13470;DHT22;6807;48.682;9.032;2023-11-19T23:08:25;8.90;89.20
13470;DHT22;6807;48.682;9.032;2023-11-19T23:10:52;8.90;89.50
13470;DHT22;6807;48.682;9.032;2023-11-19T23:13:19;8.80;90.00
13470;DHT22;6807;48.682;9.032;2023-11-19T23:15:47;8.80;90.40
13470;DHT22;6807;48.682;9.032;2023-11-19T23:18:14;8.70;90.60
13470;DHT22;6807;48.682;9.032;2023-11-19T23:20:40;8.50;90.90
13470;DHT22;6807;48.682;9.032;2023-11-19T23:23:07;8.30;92.10
13470;DHT22;6807;48.682;9.032;2023-11-19T23:25:34;8.20;92.90
13470;DHT22;6807;48.682;9.032;2023-11-19T23:28:01;8.00;93.50
13470;DHT22;6807;48.682;9.032;2023-11-19T23:30:29;8.10;93.90
13470;DHT22;6807;48.682;9.032;2023-11-19T23:32:57;8.30;92.80
13470;DHT22;6807;48.682;9.032;2023-11-19T23:35:24;8.30;91.90
13470;DHT22;6807;48.682;9.032;2023-11-19T23:37:51;8.50;91.10
13470;DHT22;6807;48.682;9.032;2023-11-19T23:40:18;8.60;89.90
13470;DHT22;6807;48.682;9.032;2023-11-19T23:42:45;8.60;89.40
13470;DHT22;6807;48.682;9.032;2023-11-19T23:45:13;8.60;89.50
13470;DHT22;6807;48.682;9.032;2023-11-19T23:47:41;8.60;89.50
13470;DHT22;6807;48.682;9.032;2023-11-19T23:50:10;8.50;90.00
13470;DHT22;6807;48.682;9.032;2023-11-19T23:52:37;8.50;89.70
13470;DHT22;6807;48.682;9.032;2023-11-19T23:55:04;8.50;89.80
13470;DHT22;6807;48.682;9.032;2023-11-19T23:57:32;8.50;89.80
